Historique des mesures à Cassis (13260), France
Quotidien Résumé Mai 2, 2017 Unités:  US    Métrique   Métrique/US
« Précédent (Jour)
Suivant (Jour) »
Quotidien Hebdomadaire Mensuel Annuel Période au choix
  Maximum: Minimum: Moyenne:
Température: 32 °F 49.6 °F 54.9 °F
Point de rosée: 32 °F 39.4 °F 45.5 °F
Humidité: Humidity % 57 % 67 %
Vitesse du vent: WindSpeedKMH mph 0.0 mph 3.4 mph
Rafales: WindSpeedGustKMH mph - -
Vent:- - SSW
Pression: 0 in 30 in -
Précipitations: 50.8 in    
Historical Graphs
 
 
Mesures pour : Mai 2, 2017
Heure Temperature Point de rosée Pression Vent Vitesse du vent Rafales Humidité Pluie (par heure) Conditions
32 °F 32 °F 0 in Calm     Humidity % 0 in SoftwareType W/m2
00:10 55.2 °F 40.3 °F 30 in NW 15.4 mph 15.4 mph 57 % 0 in open2300-1.11 W/m2
01:10 53.8 °F 39.4 °F 30 in NW 11.1 mph 13.0 mph 58 % 0 in open2300-1.11 W/m2
02:10 53.2 °F 39.4 °F 30 in North 5.5 mph 17.2 mph 59 % 0 in open2300-1.11 W/m2
03:10 52.3 °F 40.1 °F 30 in NW 16.6 mph 16.6 mph 63 % 0 in open2300-1.11 W/m2
04:10 51.1 °F 39.7 °F 30 in North 7.6 mph 9.3 mph 65 % 0 in open2300-1.11 W/m2
05:10 49.6 °F 39.6 °F 30 in Calm   3.2 mph 68 % 0 in open2300-1.11 W/m2
06:10 50.2 °F 39.6 °F 30 in Calm   2.1 mph 67 % 0 in open2300-1.11 W/m2
07:10 49.8 °F 39.7 °F 30 in Calm   2.1 mph 68 % 0 in open2300-1.11 W/m2
08:10 55.4 °F 42.4 °F 30 in NE 4.0 mph 4.0 mph 62 % 0 in open2300-1.11 W/m2
09:10 55.9 °F 43.2 °F 30 in NNW 4.7 mph 7.6 mph 62 % 0 in open2300-1.11 W/m2
10:10 57.7 °F 45.1 °F 30 in Calm     63 % 0 in open2300-1.11 W/m2
11:10 59.2 °F 46.2 °F 30 in SSW 3.2 mph 3.2 mph 62 % 0 in open2300-1.11 W/m2
12:10 59.5 °F 47.8 °F 30 in Calm   7.2 mph 65 % 0 in open2300-1.11 W/m2
13:10 59.5 °F 49.8 °F 30 in Calm     70 % 0 in open2300-1.11 W/m2
14:10 59.4 °F 51.8 °F 30 in Calm   4.0 mph 76 % 0 in open2300-1.11 W/m2
15:10 58.6 °F 52.2 °F 30 in Calm   5.8 mph 79 % 12.7 in open2300-1.11 W/m2
16:10 58.8 °F 52.7 °F 30 in North 4.0 mph 13.0 mph 80 % 0 in open2300-1.11 W/m2
17:10 58.6 °F 52.5 °F 30 in SW 5.5 mph 5.5 mph 80 % 25.4 in open2300-1.11 W/m2
18:10 59.2 °F 53.1 °F 30 in SSW 5.0 mph 5.5 mph 80 % 0 in open2300-1.11 W/m2
19:10 59.2 °F 53.1 °F 30 in SSW 1.4 mph 6.1 mph 80 % 0 in open2300-1.11 W/m2
20:11 58.1 °F 51.6 °F 30 in Calm   11.6 mph 79 % 0 in open2300-1.11 W/m2
21:11 55.8 °F 49.6 °F 30 in Calm     80 % 0 in open2300-1.11 W/m2
22:10 54 °F 48.4 °F 30 in Calm     81 % 0 in open2300-1.11 W/m2
23:11 53.2 °F 47.7 °F 30 in NNW 1.4 mph 1.4 mph 81 % 0 in open2300-1.11 W/m2
Observations météo à CASSIS
WU-History script by Weather Underground - 1 mb